sensor_id;sensor_type;location;lat;lon;timestamp;temperature;humidity
41471;DHT22;27211;51.220;5.308;2023-12-20T00:00:38;8.00;99.90
41471;DHT22;27211;51.220;5.308;2023-12-20T00:03:04;8.10;99.90
41471;DHT22;27211;51.220;5.308;2023-12-20T00:05:30;7.90;99.90
41471;DHT22;27211;51.220;5.308;2023-12-20T00:07:57;7.90;99.90
41471;DHT22;27211;51.220;5.308;2023-12-20T00:10:23;7.90;99.90
41471;DHT22;27211;51.220;5.308;2023-12-20T00:12:48;7.80;99.90
41471;DHT22;27211;51.220;5.308;2023-12-20T00:15:14;7.80;99.90
41471;DHT22;27211;51.220;5.308;2023-12-20T00:17:39;7.70;99.90
41471;DHT22;27211;51.220;5.308;2023-12-20T00:20:05;7.60;99.90
41471;DHT22;27211;51.220;5.308;2023-12-20T00:22:31;7.50;99.90
41471;DHT22;27211;51.220;5.308;2023-12-20T00:24:57;7.60;99.90
41471;DHT22;27211;51.220;5.308;2023-12-20T00:27:22;7.60;99.90
41471;DHT22;27211;51.220;5.308;2023-12-20T00:29:48;7.80;99.90
41471;DHT22;27211;51.220;5.308;2023-12-20T00:32:15;7.80;99.90
41471;DHT22;27211;51.220;5.308;2023-12-20T00:34:42;7.60;99.90
41471;DHT22;27211;51.220;5.308;2023-12-20T00:37:07;7.50;99.90
41471;DHT22;27211;51.220;5.308;2023-12-20T00:39:33;7.40;99.90
41471;DHT22;27211;51.220;5.308;2023-12-20T00:41:59;7.50;99.90
41471;DHT22;27211;51.220;5.308;2023-12-20T00:44:24;7.60;99.90
41471;DHT22;27211;51.220;5.308;2023-12-20T00:46:50;7.50;99.90
41471;DHT22;27211;51.220;5.308;2023-12-20T00:49:15;7.60;99.90
41471;DHT22;27211;51.220;5.308;2023-12-20T00:51:41;7.50;99.90
41471;DHT22;27211;51.220;5.308;2023-12-20T00:54:06;7.40;99.90
41471;DHT22;27211;51.220;5.308;2023-12-20T00:56:32;7.40;99.90
41471;DHT22;27211;51.220;5.308;2023-12-20T00:58:58;7.20;99.90
41471;DHT22;27211;51.220;5.308;2023-12-20T01:01:23;7.20;99.90
41471;DHT22;27211;51.220;5.308;2023-12-20T01:03:49;7.10;99.90
41471;DHT22;27211;51.220;5.308;2023-12-20T01:06:16;7.20;99.90
41471;DHT22;27211;51.220;5.308;2023-12-20T01:08:42;7.20;99.90
41471;DHT22;27211;51.220;5.308;2023-12-20T01:11:09;7.10;99.90
41471;DHT22;27211;51.220;5.308;2023-12-20T01:13:35;7.10;99.90
41471;DHT22;27211;51.220;5.308;2023-12-20T01:16:00;7.10;99.90
41471;DHT22;27211;51.220;5.308;2023-12-20T01:18:26;7.00;99.90
41471;DHT22;27211;51.220;5.308;2023-12-20T01:20:52;7.00;99.90
41471;DHT22;27211;51.220;5.308;2023-12-20T01:23:17;7.10;99.90
41471;DHT22;27211;51.220;5.308;2023-12-20T01:25:43;7.10;99.90
41471;DHT22;27211;51.220;5.308;2023-12-20T01:28:09;7.20;99.90
41471;DHT22;27211;51.220;5.308;2023-12-20T01:30:34;7.10;99.90
41471;DHT22;27211;51.220;5.308;2023-12-20T01:33:00;7.20;99.90
41471;DHT22;27211;51.220;5.308;2023-12-20T01:35:26;7.20;99.90
41471;DHT22;27211;51.220;5.308;2023-12-20T01:37:52;7.20;99.90
41471;DHT22;27211;51.220;5.308;2023-12-20T01:40:22;7.30;99.90
41471;DHT22;27211;51.220;5.308;2023-12-20T01:42:47;7.20;99.90
41471;DHT22;27211;51.220;5.308;2023-12-20T01:45:13;7.10;99.90
41471;DHT22;27211;51.220;5.308;2023-12-20T01:47:39;7.30;99.90
41471;DHT22;27211;51.220;5.308;2023-12-20T01:50:05;7.30;99.90
41471;DHT22;27211;51.220;5.308;2023-12-20T01:52:33;7.20;99.90
41471;DHT22;27211;51.220;5.308;2023-12-20T01:55:01;7.10;99.90
41471;DHT22;27211;51.220;5.308;2023-12-20T01:57:29;7.20;99.90
41471;DHT22;27211;51.220;5.308;2023-12-20T01:59:55;7.30;99.90
41471;DHT22;27211;51.220;5.308;2023-12-20T02:02:21;7.30;99.90
41471;DHT22;27211;51.220;5.308;2023-12-20T02:04:47;7.30;99.90
41471;DHT22;27211;51.220;5.308;2023-12-20T02:07:13;7.30;99.90
41471;DHT22;27211;51.220;5.308;2023-12-20T02:09:38;7.20;99.90
41471;DHT22;27211;51.220;5.308;2023-12-20T02:12:04;7.30;99.90
41471;DHT22;27211;51.220;5.308;2023-12-20T02:14:30;7.10;99.90
41471;DHT22;27211;51.220;5.308;2023-12-20T02:16:56;7.00;99.90
41471;DHT22;27211;51.220;5.308;2023-12-20T02:19:22;6.90;99.90
41471;DHT22;27211;51.220;5.308;2023-12-20T02:21:47;6.90;99.90
41471;DHT22;27211;51.220;5.308;2023-12-20T02:24:13;6.80;99.90
41471;DHT22;27211;51.220;5.308;2023-12-20T02:26:38;6.90;99.90
41471;DHT22;27211;51.220;5.308;2023-12-20T02:29:04;7.00;99.90
41471;DHT22;27211;51.220;5.308;2023-12-20T02:31:29;6.80;99.90
41471;DHT22;27211;51.220;5.308;2023-12-20T02:33:55;6.70;99.90
41471;DHT22;27211;51.220;5.308;2023-12-20T02:36:20;6.90;99.90
41471;DHT22;27211;51.220;5.308;2023-12-20T02:38:46;6.80;99.90
41471;DHT22;27211;51.220;5.308;2023-12-20T02:41:12;6.80;99.90
41471;DHT22;27211;51.220;5.308;2023-12-20T02:43:37;6.70;99.90
41471;DHT22;27211;51.220;5.308;2023-12-20T02:46:03;6.80;99.90
41471;DHT22;27211;51.220;5.308;2023-12-20T02:48:28;6.80;99.90
41471;DHT22;27211;51.220;5.308;2023-12-20T02:50:54;6.90;99.90
41471;DHT22;27211;51.220;5.308;2023-12-20T02:53:20;6.90;99.90
41471;DHT22;27211;51.220;5.308;2023-12-20T02:55:45;6.80;99.90
41471;DHT22;27211;51.220;5.308;2023-12-20T02:58:11;6.80;99.90
41471;DHT22;27211;51.220;5.308;2023-12-20T03:00:36;6.90;99.90
41471;DHT22;27211;51.220;5.308;2023-12-20T03:03:02;6.90;99.90
41471;DHT22;27211;51.220;5.308;2023-12-20T03:05:27;6.80;99.90
41471;DHT22;27211;51.220;5.308;2023-12-20T03:07:53;6.90;99.90
41471;DHT22;27211;51.220;5.308;2023-12-20T03:10:18;6.80;99.90
41471;DHT22;27211;51.220;5.308;2023-12-20T03:12:44;6.90;99.90
41471;DHT22;27211;51.220;5.308;2023-12-20T03:15:10;6.90;99.90
41471;DHT22;27211;51.220;5.308;2023-12-20T03:17:35;6.80;99.90
41471;DHT22;27211;51.220;5.308;2023-12-20T03:20:01;6.80;99.90
41471;DHT22;27211;51.220;5.308;2023-12-20T03:22:27;6.70;99.90
41471;DHT22;27211;51.220;5.308;2023-12-20T03:24:52;6.70;99.90
41471;DHT22;27211;51.220;5.308;2023-12-20T03:27:18;6.80;99.90
41471;DHT22;27211;51.220;5.308;2023-12-20T03:29:43;6.70;99.90
41471;DHT22;27211;51.220;5.308;2023-12-20T03:32:09;6.80;99.90
41471;DHT22;27211;51.220;5.308;2023-12-20T03:34:35;6.80;99.90
41471;DHT22;27211;51.220;5.308;2023-12-20T03:37:00;6.90;99.90
41471;DHT22;27211;51.220;5.308;2023-12-20T03:39:26;7.00;99.90
41471;DHT22;27211;51.220;5.308;2023-12-20T03:41:51;7.00;99.90
41471;DHT22;27211;51.220;5.308;2023-12-20T03:44:17;7.00;99.90
41471;DHT22;27211;51.220;5.308;2023-12-20T03:46:42;7.10;99.90
41471;DHT22;27211;51.220;5.308;2023-12-20T03:49:08;7.10;99.90
41471;DHT22;27211;51.220;5.308;2023-12-20T03:51:34;7.10;99.90
41471;DHT22;27211;51.220;5.308;2023-12-20T03:53:59;7.10;99.90
41471;DHT22;27211;51.220;5.308;2023-12-20T03:56:25;7.20;99.90
41471;DHT22;27211;51.220;5.308;2023-12-20T03:58:50;7.30;99.90
41471;DHT22;27211;51.220;5.308;2023-12-20T04:01:16;7.30;99.90
41471;DHT22;27211;51.220;5.308;2023-12-20T04:03:41;7.30;99.90
41471;DHT22;27211;51.220;5.308;2023-12-20T04:06:15;7.20;99.90
41471;DHT22;27211;51.220;5.308;2023-12-20T04:08:41;7.30;99.90
41471;DHT22;27211;51.220;5.308;2023-12-20T04:11:06;7.30;99.90
41471;DHT22;27211;51.220;5.308;2023-12-20T04:13:32;7.40;99.90
41471;DHT22;27211;51.220;5.308;2023-12-20T04:15:58;7.60;99.90
41471;DHT22;27211;51.220;5.308;2023-12-20T04:18:23;7.30;99.90
41471;DHT22;27211;51.220;5.308;2023-12-20T04:20:49;7.20;99.90
41471;DHT22;27211;51.220;5.308;2023-12-20T04:23:15;7.30;99.90
41471;DHT22;27211;51.220;5.308;2023-12-20T04:25:40;7.30;99.90
41471;DHT22;27211;51.220;5.308;2023-12-20T04:28:06;7.30;99.90
41471;DHT22;27211;51.220;5.308;2023-12-20T04:30:31;7.50;99.90
41471;DHT22;27211;51.220;5.308;2023-12-20T04:32:57;7.40;99.90
41471;DHT22;27211;51.220;5.308;2023-12-20T04:35:23;7.60;99.90
41471;DHT22;27211;51.220;5.308;2023-12-20T04:37:48;7.70;99.90
41471;DHT22;27211;51.220;5.308;2023-12-20T04:40:14;7.70;99.90
41471;DHT22;27211;51.220;5.308;2023-12-20T04:42:40;7.70;99.90
41471;DHT22;27211;51.220;5.308;2023-12-20T04:45:06;7.70;99.90
41471;DHT22;27211;51.220;5.308;2023-12-20T04:47:32;7.70;99.90
41471;DHT22;27211;51.220;5.308;2023-12-20T04:49:57;7.70;99.90
41471;DHT22;27211;51.220;5.308;2023-12-20T04:52:23;7.60;99.90
41471;DHT22;27211;51.220;5.308;2023-12-20T04:54:49;7.50;99.90
41471;DHT22;27211;51.220;5.308;2023-12-20T04:57:14;7.40;99.90
41471;DHT22;27211;51.220;5.308;2023-12-20T04:59:40;7.40;99.90
41471;DHT22;27211;51.220;5.308;2023-12-20T05:02:07;7.40;99.90
41471;DHT22;27211;51.220;5.308;2023-12-20T05:04:32;7.50;99.90
41471;DHT22;27211;51.220;5.308;2023-12-20T05:06:58;7.60;99.90
41471;DHT22;27211;51.220;5.308;2023-12-20T05:09:23;7.50;99.90
41471;DHT22;27211;51.220;5.308;2023-12-20T05:11:49;7.50;99.90
41471;DHT22;27211;51.220;5.308;2023-12-20T05:14:14;7.40;99.90
41471;DHT22;27211;51.220;5.308;2023-12-20T05:16:40;7.40;99.90
41471;DHT22;27211;51.220;5.308;2023-12-20T05:19:06;7.40;99.90
41471;DHT22;27211;51.220;5.308;2023-12-20T05:21:32;7.30;99.90
